Terminal Aerodrome Forecast
Issued by NWS Green Bay, WI

Home | Current Version | Previous Version | Text Only | Print | Product List | Glossary On
Versions: 1 2 3 4 5 6 7 8 9 10 11 12 13 14 15 16 17 18 19 20 21 22 23 24 25 26 27 28 29 30 31 32 33 34 35 36
053
FTUS43 KGRB 071737
TAFGRB
TAF
KGRB 071737Z 0718/0818 26017G30KT P6SM SCT020
      TEMPO 0718/0722 -SN BKN020
     FM080200 26014G22KT P6SM -SN BKN025
     FM081600 29018G30KT P6SM -SN OVC025=

USA.gov is the U.S. government's official web portal to all federal, state and local government web resources and services.